.
WxDataArchive / Data Records for 2008-12-29
2008-12-28 December 2008 2008-12-30

Data Records for Monday, 29 December 2008

Time	Temp	Chill	HIndex	Humid	Dewpt	 Wind 	HiWind	WindDir	Rain 	Barom 
-----	----	-----	------	-----	-----	------	------	-------	-----	----- 
00:00	26.9	26.9	26.9	88	23.8	0	0	---	0.00	30.213 
00:05	26.9	26.9	26.9	88	23.8	0	0	---	0.00	30.209 
00:10	26.7	26.7	26.7	88	23.6	0	0	---	0.00	30.206 
00:15	26.6	26.6	26.6	88	23.5	0	1	248	0.00	30.204 
00:20	26.6	26.6	26.6	88	23.5	0	0	---	0.00	30.204 
00:25	26.6	26.6	26.6	88	23.5	0	0	---	0.00	30.203 
00:30	26.4	26.4	26.4	88	23.3	0	0	---	0.00	30.203 
00:35	26.4	26.4	26.4	88	23.3	0	0	---	0.00	30.202 
00:40	26.1	26.1	26.1	88	23.0	0	0	---	0.00	30.201 
00:45	26.0	26.0	26.0	88	22.9	0	0	---	0.00	30.198 
00:50	25.7	25.7	25.7	88	22.6	0	0	---	0.00	30.195 
00:55	25.4	25.4	25.4	88	22.4	0	0	---	0.00	30.196 
01:00	25.3	25.3	25.3	88	22.3	0	0	---	0.00	30.194 
01:05	25.0	25.0	25.0	88	22.0	0	0	---	0.00	30.193 
01:10	25.0	25.0	25.0	89	22.2	0	0	---	0.00	30.191 
01:15	25.0	25.0	25.0	89	22.2	0	0	---	0.00	30.196 
01:20	25.0	25.0	25.0	89	22.2	0	0	---	0.00	30.196 
01:25	25.1	25.1	25.1	90	22.6	0	1	248	0.00	30.197 
01:30	25.3	25.3	25.3	90	22.8	0	0	---	0.00	30.195 
01:35	25.3	25.3	25.3	90	22.8	0	0	---	0.00	30.191 
01:40	25.3	25.3	25.3	90	22.8	0	0	---	0.00	30.188 
01:45	25.1	25.1	25.1	90	22.6	0	0	---	0.00	30.189 
01:50	25.0	25.0	25.0	90	22.5	0	0	---	0.00	30.189 
01:55	24.7	24.7	24.7	90	22.2	0	0	---	0.00	30.187 
02:00	24.5	24.5	24.5	90	22.0	0	0	---	0.00	30.187 
02:05	24.5	24.5	24.5	90	22.0	0	0	---	0.00	30.188 
02:10	24.7	24.7	24.7	91	22.5	0	0	---	0.00	30.187 
02:15	25.0	25.0	25.0	91	22.8	0	0	---	0.00	30.187 
02:20	25.1	25.1	25.1	91	22.9	0	0	---	0.00	30.187 
02:25	25.3	25.3	25.3	91	23.0	0	0	---	0.00	30.186 
02:30	25.3	25.3	25.3	91	23.0	0	1	248	0.00	30.186 
02:35	25.4	25.4	25.4	91	23.1	0	0	---	0.00	30.186 
02:40	25.6	25.6	25.6	91	23.3	0	0	---	0.00	30.185 
02:45	25.6	25.6	25.6	91	23.3	0	0	---	0.00	30.185 
02:50	25.7	25.7	25.7	91	23.4	0	0	---	0.00	30.184 
02:55	26.0	26.0	26.0	91	23.7	0	2	248	0.00	30.183 
03:00	26.1	26.1	26.1	90	23.6	0	1	248	0.00	30.179 
03:05	26.4	26.4	26.4	90	23.9	0	1	248	0.00	30.177 
03:10	26.6	26.6	26.6	89	23.8	0	1	248	0.00	30.173 
03:15	26.7	26.7	26.7	89	23.9	0	1	248	0.00	30.170 
03:20	26.7	26.7	26.7	88	23.6	0	1	248	0.00	30.168 
03:25	26.9	26.9	26.9	87	23.6	0	1	248	0.00	30.168 
03:30	26.9	26.9	26.9	87	23.6	0	1	248	0.00	30.163 
03:35	27.2	27.2	27.2	86	23.6	0	1	248	0.00	30.165 
03:40	27.3	27.3	27.3	86	23.7	0	1	248	0.00	30.163 
03:45	27.6	27.6	27.6	85	23.7	0	2	248	0.00	30.155 
03:50	27.8	27.8	27.8	85	23.9	0	2	248	0.00	30.155 
03:55	27.9	27.9	27.9	84	23.7	0	3	248	0.00	30.152 
04:00	28.2	28.2	28.2	83	23.7	0	2	248	0.00	30.152 
04:05	28.2	28.2	28.2	83	23.7	0	1	248	0.00	30.154 
04:10	28.2	28.2	28.2	82	23.4	0	1	248	0.00	30.154 
04:15	28.2	28.2	28.2	82	23.4	0	2	248	0.00	30.151 
04:20	28.1	28.1	28.1	82	23.3	0	1	248	0.00	30.153 
04:25	28.2	28.2	28.2	81	23.1	0	3	248	0.00	30.150 
04:30	28.4	28.4	28.4	81	23.3	0	1	248	0.00	30.147 
04:35	28.4	28.4	28.4	81	23.3	0	0	---	0.00	30.147 
04:40	28.4	28.4	28.4	81	23.3	0	3	248	0.00	30.141 
04:45	28.5	28.5	28.5	81	23.4	0	2	225	0.00	30.141 
04:50	28.7	28.7	28.7	80	23.3	0	2	225	0.00	30.138 
04:55	28.8	28.8	28.8	80	23.4	0	1	225	0.00	30.136 
05:00	28.8	28.8	28.8	80	23.4	0	2	225	0.00	30.135 
05:05	28.8	28.8	28.8	80	23.4	0	1	225	0.00	30.130 
05:10	28.8	28.8	28.8	79	23.1	0	1	225	0.00	30.123 
05:15	28.8	28.8	28.8	80	23.4	0	2	225	0.00	30.123 
05:20	28.8	28.8	28.8	80	23.4	0	1	225	0.00	30.121 
05:25	28.8	28.8	28.8	80	23.4	0	2	225	0.00	30.120 
05:30	28.8	28.8	28.8	80	23.4	0	1	225	0.00	30.121 
05:35	29.0	29.0	29.0	80	23.6	0	2	225	0.00	30.120 
05:40	29.1	29.1	29.1	80	23.7	0	2	225	0.00	30.121 
05:45	29.3	29.3	29.3	80	23.9	0	4	248	0.00	30.123 
05:50	29.3	29.3	29.3	80	23.9	0	3	248	0.00	30.120 
05:55	29.5	29.5	29.5	80	24.1	0	3	248	0.00	30.120 
06:00	29.5	29.5	29.5	79	23.8	0	2	248	0.00	30.120 
06:05	29.7	29.7	29.7	79	24.0	1	4	225	0.00	30.121 
06:10	29.7	29.7	29.7	79	24.0	0	3	248	0.00	30.121 
06:15	29.8	29.8	29.8	79	24.1	1	3	248	0.00	30.121 
06:20	29.8	29.8	29.8	79	24.1	0	2	248	0.00	30.122 
06:25	29.8	29.8	29.8	79	24.1	1	2	248	0.00	30.121 
06:30	29.8	29.8	29.8	79	24.1	1	3	248	0.00	30.120 
06:35	29.8	29.8	29.8	79	24.1	0	3	248	0.00	30.119 
06:40	29.8	29.8	29.8	79	24.1	1	3	248	0.00	30.119 
06:45	29.8	29.8	29.8	79	24.1	1	4	248	0.00	30.120 
06:50	30.0	30.0	30.0	79	24.3	1	3	248	0.00	30.120 
06:55	30.0	30.0	30.0	79	24.3	1	4	248	0.00	30.120 
07:00	30.0	30.0	30.0	79	24.3	0	3	225	0.00	30.118 
07:05	30.0	30.0	30.0	79	24.3	0	2	225	0.00	30.120 
07:10	30.0	30.0	30.0	79	24.3	1	3	248	0.00	30.119 
07:15	30.0	30.0	30.0	79	24.3	1	3	248	0.00	30.121 
07:20	30.0	30.0	30.0	80	24.6	1	2	248	0.00	30.120 
07:25	30.0	30.0	30.0	80	24.6	0	2	248	0.00	30.121 
07:30	30.0	30.0	30.0	80	24.6	1	4	248	0.00	30.121 
07:35	30.0	30.0	30.0	80	24.6	1	2	248	0.00	30.120 
07:40	30.0	30.0	30.0	80	24.6	1	3	248	0.00	30.119 
07:45	30.0	30.0	30.0	80	24.6	1	3	248	0.00	30.119 
07:50	30.0	30.0	30.0	80	24.6	1	3	248	0.00	30.118 
07:55	30.0	30.0	30.0	80	24.6	1	4	248	0.00	30.118 
08:00	30.0	30.0	30.0	80	24.6	1	3	248	0.00	30.119 
08:05	30.0	30.0	30.0	80	24.6	1	3	248	0.00	30.122 
08:10	30.1	30.1	30.1	81	25.0	1	4	248	0.00	30.122 
08:15	30.1	30.1	30.1	80	24.7	1	4	248	0.00	30.121 
08:20	30.1	30.1	30.1	80	24.7	0	2	248	0.00	30.118 
08:25	30.1	30.1	30.1	81	25.0	1	3	248	0.00	30.113 
08:30	30.1	30.1	30.1	81	25.0	0	3	248	0.00	30.110 
08:35	30.1	30.1	30.1	81	25.0	1	3	225	0.00	30.110 
08:40	30.3	30.3	30.3	81	25.2	0	3	225	0.00	30.109 
08:45	30.4	30.4	30.4	81	25.3	1	4	225	0.00	30.107 
08:50	30.7	30.7	30.7	81	25.6	1	3	248	0.00	30.104 
08:55	30.9	30.9	30.9	80	25.5	0	4	248	0.00	30.093 
09:00	31.2	31.2	31.2	80	25.8	0	3	225	0.00	30.096 
09:05	31.3	31.3	31.3	80	25.9	1	4	248	0.00	30.095 
09:10	31.5	31.5	31.5	80	26.1	1	4	225	0.00	30.092 
09:15	31.8	31.8	31.8	80	26.3	1	4	248	0.00	30.091 
09:20	32.2	32.2	32.2	79	26.4	1	3	248	0.00	30.092 
09:25	32.5	32.5	32.5	78	26.4	1	5	248	0.00	30.092 
09:30	32.9	32.9	32.9	77	26.5	2	6	248	0.00	30.092 
09:35	33.2	33.2	33.2	77	26.8	2	6	248	0.00	30.092 
09:40	33.4	33.4	33.4	76	26.7	2	5	248	0.00	30.090 
09:45	33.7	33.7	33.7	76	27.0	3	7	248	0.00	30.090 
09:50	34.0	34.0	34.0	75	26.9	3	7	248	0.00	30.088 
09:55	34.3	34.3	34.3	75	27.2	2	7	248	0.00	30.087 
10:00	34.6	34.6	34.6	74	27.2	3	10	248	0.00	30.086 
10:05	34.9	34.9	34.9	74	27.5	3	7	248	0.00	30.088 
10:10	35.0	35.0	35.0	73	27.2	3	10	248	0.00	30.088 
10:15	35.2	35.2	35.2	73	27.4	3	10	248	0.00	30.085 
10:20	35.5	35.5	35.5	73	27.7	3	9	248	0.00	30.088 
10:25	35.8	35.8	35.8	73	28.0	2	4	248	0.00	30.085 
10:30	36.0	36.0	36.0	72	27.9	2	6	248	0.00	30.077 
10:35	36.3	36.3	36.3	71	27.8	3	7	248	0.00	30.072 
10:40	36.6	36.6	36.6	71	28.1	3	5	248	0.00	30.067 
10:45	36.8	36.8	36.8	71	28.3	2	6	248	0.00	30.058 
10:50	37.0	37.0	37.0	70	28.1	2	7	248	0.00	30.055 
10:55	37.5	37.5	37.5	70	28.6	2	7	248	0.00	30.051 
11:00	37.6	37.6	37.6	69	28.4	3	10	248	0.00	30.050 
11:05	37.9	37.9	37.9	69	28.7	3	8	270	0.00	30.048 
11:10	37.9	34.9	37.9	67	27.9	4	9	248	0.00	30.049 
11:15	37.8	37.8	37.8	68	28.2	3	7	248	0.00	30.041 
11:20	37.9	37.9	37.9	70	29.0	2	9	248	0.00	30.037 
11:25	38.0	35.0	38.0	68	28.4	4	13	248	0.00	30.035 
11:30	38.3	38.3	38.3	68	28.7	3	9	248	0.00	30.025 
11:35	38.6	38.6	38.6	67	28.6	3	7	248	0.00	30.021 
11:40	39.1	39.1	39.1	67	29.1	2	6	248	0.00	30.019 
11:45	39.3	39.3	39.3	65	28.5	3	11	248	0.00	30.009 
11:50	39.5	36.7	39.5	65	28.7	4	13	248	0.00	30.007 
11:55	39.6	36.9	39.6	64	28.4	4	10	248	0.00	30.006 
12:00	39.9	37.2	39.9	64	28.7	4	11	270	0.00	30.002 
12:05	40.2	37.5	40.2	63	28.6	4	7	248	0.00	29.996 
12:10	40.6	40.6	40.6	63	29.0	3	9	248	0.00	29.991 
12:15	40.8	38.2	40.8	62	28.8	4	13	270	0.00	29.988 
12:20	40.9	37.5	40.9	62	28.9	5	10	248	0.00	29.987 
12:25	41.1	38.6	41.1	62	29.1	4	11	248	0.00	29.982 
12:30	41.2	38.7	41.2	62	29.2	4	11	248	0.00	29.975 
12:35	41.3	38.0	41.3	61	28.9	5	12	270	0.00	29.974 
12:40	41.3	38.0	41.3	61	28.9	5	13	248	0.00	29.973 
12:45	41.5	39.1	41.5	61	29.1	4	9	270	0.00	29.963 
12:50	41.8	39.4	41.8	61	29.4	4	11	270	0.00	29.960 
12:55	41.9	38.7	41.9	60	29.0	5	11	270	0.00	29.955 
13:00	41.9	39.5	41.9	60	29.0	4	11	248	0.00	29.947 
13:05	42.1	38.3	42.1	60	29.2	6	13	270	0.00	29.943 
13:10	42.2	39.1	42.2	60	29.3	5	9	270	0.00	29.941 
13:15	42.5	42.5	42.5	60	29.6	3	6	270	0.00	29.933 
13:20	42.6	38.9	42.6	60	29.7	6	12	270	0.00	29.927 
13:25	42.8	40.6	42.8	59	29.5	4	12	248	0.00	29.923 
13:30	42.9	40.7	42.9	59	29.6	4	11	248	0.00	29.921 
13:35	43.1	40.9	43.1	60	30.2	4	10	248	0.00	29.915 
13:40	43.3	43.3	43.3	59	29.9	3	9	248	0.00	29.912 
13:45	43.3	40.3	43.3	59	29.9	5	12	270	0.00	29.905 
13:50	43.6	41.5	43.6	57	29.4	4	10	270	0.00	29.898 
13:55	43.8	40.9	43.8	57	29.6	5	15	248	0.00	29.895 
14:00	43.9	41.1	43.9	56	29.2	5	12	248	0.00	29.894 
14:05	43.8	39.7	43.8	56	29.1	7	15	248	0.00	29.890 
14:10	44.1	41.3	44.1	54	28.5	5	12	248	0.00	29.886 
14:15	44.5	42.5	44.5	56	29.8	4	10	248	0.00	29.875 
14:20	44.8	42.9	44.8	54	29.2	4	11	248	0.00	29.870 
14:25	44.8	41.5	44.8	53	28.7	6	20	248	0.00	29.861 
14:30	44.8	40.4	44.8	52	28.3	8	14	270	0.00	29.879 
14:35	44.8	40.9	44.8	53	28.7	7	15	270	0.00	29.891 
14:40	44.9	41.6	44.9	53	28.8	6	14	248	0.00	29.881 
14:45	45.1	42.5	45.1	53	29.0	5	12	248	0.00	29.892 
14:50	45.2	41.4	45.2	52	28.6	7	13	248	0.00	29.893 
14:55	45.4	41.6	45.4	52	28.8	7	18	270	0.00	29.901 
15:00	45.7	43.9	45.7	52	29.1	4	11	270	0.00	29.914 
15:05	45.7	42.0	45.7	52	29.1	7	17	270	0.00	29.909 
15:10	45.8	43.3	45.8	52	29.2	5	11	270	0.00	29.905 
15:15	45.8	42.1	45.8	51	28.7	7	15	270	0.00	29.900 
15:20	45.7	41.5	45.7	51	28.6	8	18	270	0.00	29.903 
15:25	45.5	41.8	45.5	51	28.4	7	18	270	0.00	29.903 
15:30	45.5	42.9	45.5	51	28.4	5	14	270	0.00	29.903 
15:35	45.4	40.7	45.4	52	28.8	9	22	270	0.00	29.910 
15:40	45.4	41.2	45.4	52	28.8	8	20	270	0.00	29.908 
15:45	45.2	41.4	45.2	53	29.1	7	24	270	0.00	29.914 
15:50	45.2	41.4	45.2	53	29.1	7	16	270	0.00	29.910 
15:55	45.1	40.8	45.1	53	29.0	8	16	270	0.00	29.918 
16:00	44.9	41.6	44.9	54	29.3	6	16	270	0.00	29.920 
16:05	44.8	42.1	44.8	54	29.2	5	13	270	0.00	29.918 
16:10	44.6	40.2	44.6	54	29.0	8	20	270	0.00	29.921 
16:15	44.5	41.8	44.5	55	29.3	5	14	270	0.00	29.923 
16:20	44.3	40.9	44.3	55	29.2	6	15	270	0.00	29.933 
16:25	44.2	40.8	44.2	56	29.5	6	16	270	0.00	29.933 
16:30	43.9	39.8	43.9	57	29.7	7	16	270	0.00	29.937 
16:35	43.8	40.3	43.8	58	30.0	6	16	270	0.00	29.937 
16:40	43.5	39.9	43.5	58	29.7	6	16	270	0.00	29.937 
16:45	43.3	39.7	43.3	59	29.9	6	14	270	0.00	29.943 
16:50	42.9	42.9	42.9	60	30.0	3	7	270	0.00	29.941 
16:55	42.8	39.1	42.8	61	30.3	6	13	270	0.00	29.952 
17:00	42.3	39.2	42.3	62	30.2	5	12	270	0.00	29.953 
17:05	42.2	39.1	42.2	63	30.5	5	14	270	0.00	29.954 
17:10	41.9	38.7	41.9	64	30.6	5	14	270	0.00	29.959 
17:15	41.5	39.1	41.5	65	30.6	4	16	270	0.00	29.966 
17:20	41.3	38.0	41.3	66	30.8	5	12	270	0.00	29.969 
17:25	41.1	37.1	41.1	67	31.0	6	16	270	0.00	29.973 
17:30	40.9	37.5	40.9	67	30.8	5	13	270	0.00	29.980 
17:35	40.6	38.0	40.6	68	30.9	4	12	270	0.00	29.985 
17:40	40.3	36.8	40.3	69	31.0	5	10	270	0.00	29.988 
17:45	40.2	40.2	40.2	70	31.2	3	7	270	0.00	29.996 
17:50	40.1	37.4	40.1	70	31.1	4	11	270	0.00	30.000 
17:55	39.9	37.2	39.9	70	30.9	4	11	270	0.00	30.003 
18:00	39.9	37.2	39.9	71	31.3	4	9	270	0.00	30.013 
18:05	39.9	39.9	39.9	71	31.3	3	6	270	0.00	30.016 
18:10	39.8	39.8	39.8	71	31.2	3	6	270	0.00	30.018 
18:15	39.6	39.6	39.6	72	31.3	2	5	270	0.00	30.019 
18:20	39.5	39.5	39.5	72	31.2	2	5	270	0.00	30.025 
18:25	39.5	39.5	39.5	72	31.2	3	13	270	0.00	30.034 
18:30	39.3	39.3	39.3	72	31.0	2	6	270	0.00	30.040 
18:35	39.3	39.3	39.3	73	31.4	2	6	270	0.00	30.041 
18:40	39.2	39.2	39.2	72	30.9	3	5	270	0.00	30.048 
18:45	39.1	39.1	39.1	72	30.8	2	10	270	0.00	30.052 
18:50	39.1	39.1	39.1	71	30.5	3	7	270	0.00	30.057 
18:55	39.1	39.1	39.1	71	30.5	3	7	270	0.00	30.061 
19:00	39.2	39.2	39.2	70	30.3	3	6	270	0.00	30.066 
19:05	39.1	39.1	39.1	70	30.2	3	9	292	0.00	30.066 
19:10	39.1	36.3	39.1	69	29.8	4	9	270	0.00	30.068 
19:15	39.1	39.1	39.1	69	29.8	3	10	270	0.00	30.070 
19:20	38.8	38.8	38.8	70	29.9	3	8	270	0.00	30.066 
19:25	38.8	38.8	38.8	69	29.5	3	7	270	0.00	30.069 
19:30	38.6	38.6	38.6	69	29.3	3	10	270	0.00	30.070 
19:35	38.5	38.5	38.5	69	29.2	2	7	270	0.00	30.071 
19:40	38.3	38.3	38.3	70	29.4	3	9	270	0.00	30.071 
19:45	38.2	38.2	38.2	70	29.3	3	10	270	0.00	30.077 
19:50	38.0	38.0	38.0	70	29.1	3	9	270	0.00	30.078 
19:55	37.9	37.9	37.9	71	29.4	2	5	270	0.00	30.081 
20:00	37.8	37.8	37.8	71	29.3	2	5	270	0.00	30.082 
20:05	37.8	37.8	37.8	71	29.3	3	10	270	0.00	30.082 
20:10	37.6	37.6	37.6	71	29.1	2	5	270	0.00	30.083 
20:15	37.6	37.6	37.6	71	29.1	3	7	270	0.00	30.087 
20:20	37.5	37.5	37.5	71	29.0	2	6	248	0.00	30.085 
20:25	37.3	37.3	37.3	71	28.8	3	6	270	0.00	30.090 
20:30	37.3	37.3	37.3	71	28.8	3	5	270	0.00	30.094 
20:35	37.2	37.2	37.2	72	29.0	2	7	270	0.00	30.096 
20:40	37.2	37.2	37.2	71	28.7	3	11	270	0.00	30.097 
20:45	37.2	37.2	37.2	71	28.7	3	6	270	0.00	30.098 
20:50	37.0	37.0	37.0	72	28.8	2	5	270	0.00	30.099 
20:55	37.0	37.0	37.0	72	28.8	3	6	270	0.00	30.099 
21:00	37.0	37.0	37.0	72	28.8	2	5	270	0.00	30.102 
21:05	37.0	37.0	37.0	72	28.8	3	5	270	0.00	30.097 
21:10	36.9	36.9	36.9	73	29.1	3	5	270	0.00	30.096 
21:15	36.9	36.9	36.9	73	29.1	3	9	270	0.00	30.096 
21:20	36.8	36.8	36.8	73	29.0	3	6	270	0.00	30.095 
21:25	36.8	36.8	36.8	73	29.0	3	9	248	0.00	30.097 
21:30	36.6	36.6	36.6	73	28.8	2	7	248	0.00	30.101 
21:35	36.5	36.5	36.5	73	28.7	3	7	270	0.00	30.104 
21:40	36.5	36.5	36.5	73	28.7	3	9	270	0.00	30.109 
21:45	36.3	36.3	36.3	73	28.5	2	4	270	0.00	30.113 
21:50	36.2	36.2	36.2	73	28.4	2	6	270	0.00	30.121 
21:55	36.0	36.0	36.0	73	28.2	3	7	248	0.00	30.125 
22:00	36.0	36.0	36.0	73	28.2	2	6	270	0.00	30.125 
22:05	35.9	35.9	35.9	73	28.1	2	6	315	0.00	30.123 
22:10	35.8	35.8	35.8	73	28.0	2	5	292	0.00	30.124 
22:15	35.8	35.8	35.8	73	28.0	2	5	270	0.00	30.126 
22:20	35.5	35.5	35.5	73	27.7	2	5	292	0.00	30.126 
22:25	35.3	35.3	35.3	73	27.5	2	6	270	0.00	30.133 
22:30	35.2	35.2	35.2	72	27.1	2	5	315	0.00	30.136 
22:35	35.2	35.2	35.2	69	26.1	3	6	315	0.00	30.135 
22:40	35.2	35.2	35.2	67	25.4	2	6	315	0.00	30.134 
22:45	35.0	35.0	35.0	66	24.8	1	5	315	0.00	30.131 
22:50	34.9	34.9	34.9	66	24.7	2	6	270	0.00	30.134 
22:55	34.9	34.9	34.9	66	24.7	1	5	338	0.00	30.134 
23:00	34.6	34.6	34.6	66	24.4	1	5	338	0.00	30.136 
23:05	34.4	34.4	34.4	66	24.2	1	3	315	0.00	30.131 
23:10	34.1	34.1	34.1	66	23.9	1	4	292	0.00	30.136 
23:15	34.1	34.1	34.1	67	24.3	1	2	292	0.00	30.134 
23:20	33.8	33.8	33.8	67	24.0	1	2	248	0.00	30.138 
23:25	33.7	33.7	33.7	68	24.3	0	3	270	0.00	30.139 
23:30	33.4	33.4	33.4	68	24.0	0	2	270	0.00	30.140 
23:35	33.4	33.4	33.4	68	24.0	2	5	270	0.00	30.142 
23:40	33.2	33.2	33.2	68	23.8	1	5	270	0.00	30.144 
23:45	33.2	33.2	33.2	68	23.8	1	4	225	0.00	30.145 
23:50	33.1	33.1	33.1	68	23.7	1	3	225	0.00	30.146 
23:55	32.8	32.8	32.8	68	23.4	0	1	225	0.00	30.150 

CoCoRaHS
IN-AL-39
A2 Web Hosting
Creative Commons License
GoDaddy
search engine by freefind advanced

loaded 2018-11-20 06:14:15 • last modified 2010-11-18 10:43:29
Privacy PolicyDisclaimer
• wx.awcolley.com is powered by PmWiki v.2002016 •
• all content (unless otherwise noted) © 2018 A W Colley